Latest Coastal Weather Observations for Port Hedland

IDW60701

Issued at 11:23 am WST Saturday 5 December 2020 (issued every 10 minutes, with the page automatically refreshed every 10 minutes)

About coastal observations | Map of coastal stations | Coastal observations for WA | Marine services | Other Formats
Station Details ID: 004032 Name: PORT HEDLAND AIRPORT Lat: -20.37 Lon: 118.63 Height: 6.4 m
Data from the previous 72 hours. | See also: Recent months at Port Hedland
Date/Time
WST
Wind Sea
Height
m
Swell Vis
km
Cloud Weather Temp
°C
Press
MSL
hPa
Rain since
9am
mm
Dir  Spd
kts
Gust
kts
Height
m
Period
s
Dir
05/11:00am NNW 13 15 - - - - 10 - - 36.3 1006.8 0.0
05/10:30am NW 13 16 - - - - 10 - - 36.1 1007.2 0.0
05/10:00am NNW 10 15 - - - - 10 - - 36.4 1007.5 0.0
05/09:30am W 4 6 - - - - 10 - - 37.4 1007.7 0.0
05/09:00am SW 5 7 - - - - 10 - - 36.2 1008.2 0.0
05/08:30am S 4 5 - - - - 10 - - 35.3 1008.3 0.0
05/08:00am WSW 4 6 - - - - 10 - - 33.8 1008.5 0.0
05/07:30am WSW 6 8 - - - - 10 - - 32.6 1008.7 0.0
05/07:00am SW 7 9 - - - - 10 - - 31.1 1008.6 0.0
05/06:30am WSW 5 7 - - - - 10 - - 29.9 1008.7 0.0
05/06:00am SSW 5 7 - - - - 10 Mostly clear - 28.9 1008.7 0.0
05/05:30am SW 6 8 - - - - 10 - - 27.9 1008.1 0.0
05/05:00am WSW 9 11 - - - - 10 - - 27.9 1007.8 0.0
05/04:30am WSW 8 11 - - - - 10 - - 28.3 1007.8 0.0
05/04:00am WSW 8 11 - - - - 10 - - 28.7 1007.7 0.0
05/03:30am W 9 10 - - - - 10 - - 28.6 1007.7 0.0
05/03:00am W 7 10 - - - - 10 Mostly cloudy - 28.4 1007.7 0.0
05/02:30am WSW 7 8 - - - - 10 - - 28.1 1007.8 0.0
05/02:00am WSW 5 6 - - - - 10 - - 28.2 1007.9 0.0
05/01:30am WSW 7 8 - - - - 10 - - 28.7 1008.2 0.0
05/01:00am W 7 9 - - - - 10 - - 28.9 1008.3 0.0
05/12:30am W 8 9 - - - - 10 - - 29.1 1008.6 0.0
05/12:00am W 8 10 - - - - 10 - - 29.2 1008.9 0.0
 
Date/Time
WST
Wind Sea
Height
m
Swell Vis
km
Cloud Weather Temp
°C
Press
MSL
hPa
Rain since
9am
mm
Dir  Spd
kts
Gust
kts
Height
m
Period
s
Dir
04/11:30pm W 8 11 - - - - 10 - - 29.4 1009.2 0.0
04/11:00pm W 12 15 - - - - 10 - - 29.6 1009.6 0.0
04/10:30pm W 11 14 - - - - 10 - - 29.6 1009.7 0.0
04/10:00pm W 9 11 - - - - 10 - - 29.6 1009.5 0.0
04/09:30pm W 11 15 - - - - 10 - - 29.8 1009.2 0.0
04/09:00pm W 11 14 - - - - 10 Cloudy - 30.1 1009.1 0.0
04/08:30pm W 11 13 - - - - 10 - - 30.3 1009.2 0.0
04/08:00pm WNW 10 13 - - - - 10 - - 30.4 1008.8 0.0
04/07:30pm W 11 15 - - - - 10 - - 30.5 1008.3 0.0
04/07:00pm W 10 14 - - - - 10 - - 30.6 1007.6 0.0
04/06:30pm WNW 11 14 - - - - 10 - - 31.0 1007.1 0.0
04/06:00pm NW 11 15 - - - - 10 Mostly clear - 32.2 1006.8 0.0
04/05:30pm NNW 12 15 - - - - 10 - - 32.9 1006.6 0.0
04/05:00pm NNW 13 17 - - - - 10 - - 33.0 1006.1 0.0
04/04:30pm N 14 17 - - - - 10 - - 33.4 1006.0 0.0
04/04:00pm N 14 20 - - - - 10 - - 33.1 1005.9 0.0
04/03:30pm N 13 18 - - - - 10 - - 34.5 1005.8 0.0
04/03:00pm N 15 19 - - - - 10 - - 34.2 1005.9 0.0
04/02:30pm N 17 21 - - - - 10 - - 34.8 1006.1 0.0
04/02:00pm N 16 21 - - - - 10 - - 34.9 1006.5 0.0
04/01:30pm NNE 18 23 - - - - 10 - - 35.0 1006.9 0.0
04/01:00pm N 16 20 - - - - 10 - - 36.1 1007.3 0.0
04/12:30pm N 19 24 - - - - 10 - - 35.1 1007.9 0.0
04/12:00pm N 19 24 - - - - 10 - - 34.6 1008.3 0.0
04/11:34am NNE 15 25 - - - - 10 - - 36.3 1008.4 0.0
04/11:30am N 12 18 - - - - 10 - - 36.7 1008.4 0.0
04/11:00am NNE 13 16 - - - - 10 - - 35.9 1008.8 0.0
04/10:30am NNE 10 13 - - - - 10 - - 35.4 1009.0 0.0
04/10:00am NNE 10 13 - - - - 10 - - 35.1 1009.2 0.0
04/09:30am ENE 8 14 - - - - 10 - - 36.4 1009.4 0.0
04/09:00am ESE 7 10 - - - - 10 - - 35.7 1009.6 0.0
04/08:30am ESE 9 13 - - - - 10 - - 34.4 1009.8 0.0
04/08:00am ESE 9 13 - - - - 10 - - 34.0 1009.9 0.0
04/07:30am SE 11 14 - - - - 10 - - 32.0 1010.0 0.0
04/07:00am ESE 12 16 - - - - 10 - - 30.5 1010.1 0.0
04/06:30am SE 11 15 - - - - 10 - - 29.5 1010.2 0.0
04/06:00am SE 7 9 - - - - 10 - - 28.4 1010.3 0.0
04/05:30am SSE 7 9 - - - - 10 - - 27.4 1009.8 0.0
04/05:00am SSE 7 10 - - - - 10 - - 27.4 1009.7 0.0
04/04:30am SSE 8 11 - - - - 10 Partly cloudy - 27.7 1009.7 0.0
04/04:00am S 9 11 - - - - 10 Partly cloudy - 27.8 1009.9 0.0
04/03:30am S 9 13 - - - - 10 Partly cloudy - 28.0 1010.0 0.0
04/03:00am S 11 14 - - - - 10 Cloudy - 28.1 1009.9 0.0
04/02:30am S 11 16 - - - - 10 - - 28.4 1010.3 0.0
04/02:00am S 11 14 - - - - 10 - - 28.5 1010.4 0.0
04/01:30am S 13 19 - - - - 10 Partly cloudy - 29.1 1010.5 0.0
04/01:00am SW 6 8 - - - - 10 Cloudy - 30.3 1010.6 0.0
04/12:30am WSW 5 7 - - - - 10 Cloudy - 29.9 1011.0 0.0
04/12:00am SW 5 6 - - - - 10 Cloudy - 30.0 1011.2 0.0
 
Date/Time
WST
Wind Sea
Height
m
Swell Vis
km
Cloud Weather Temp
°C
Press
MSL
hPa
Rain since
9am
mm
Dir  Spd
kts
Gust
kts
Height
m
Period
s
Dir
03/11:30pm SSW 6 7 - - - - 10 - - 30.1 1011.2 0.0
03/11:00pm ESE 5 6 - - - - 10 - - 30.1 1011.2 0.0
03/10:30pm ESE 2 6 - - - - 10 - - 30.4 1010.9 0.0
03/10:00pm CALM 0 0 - - - - 10 - - 30.4 1010.8 0.0
03/09:30pm E 4 5 - - - - 10 - - 30.3 1010.5 0.0
03/09:00pm E 7 13 - - - - 10 Cloudy - 30.4 1010.3 0.0
03/08:30pm NNW 6 8 - - - - 10 - - 30.4 1009.9 0.0
03/08:00pm NNW 8 11 - - - - 10 - - 30.6 1009.6 0.0
03/07:30pm NNW 9 11 - - - - 10 - - 30.6 1009.1 0.0
03/07:00pm NNW 10 12 - - - - 10 - - 30.8 1008.8 0.0
03/06:30pm N 10 12 - - - - 10 - - 30.8 1008.4 0.0
03/06:00pm NNW 10 12 - - - - 10 Cloudy - 31.2 1007.9 0.0
03/05:30pm N 12 16 - - - - 10 - - 31.7 1007.5 0.0
03/05:00pm N 14 18 - - - - 10 - - 31.8 1006.9 0.0
03/04:30pm N 15 20 - - - - 10 - - 32.9 1006.4 0.0
03/04:00pm NNE 15 19 - - - - 10 - - 34.7 1006.0 0.0
03/03:30pm N 16 22 - - - - 10 - - 33.8 1005.9 0.0
03/03:00pm N 18 23 - - - - 10 - - 34.6 1006.4 0.0
03/02:30pm N 17 21 - - - - 10 - - 35.4 1006.4 0.0
03/02:00pm N 16 20 - - - - 10 - - 35.9 1006.3 0.0
03/01:30pm N 17 23 - - - - 10 - - 37.2 1006.9 0.0
03/01:00pm N 16 21 - - - - 10 - - 35.1 1007.3 0.0
03/12:30pm N 17 20 - - - - 10 - - 35.5 1007.3 0.0
03/12:00pm N 15 18 - - - - 10 - - 35.9 1007.5 0.0
03/11:30am NNE 14 17 - - - - 10 - - 38.7 1007.7 0.0
03/11:00am NNE 15 18 - - - - 10 - - 38.1 1008.1 0.0
03/10:30am NE 11 14 - - - - 10 - - 39.0 1008.5 0.0
03/10:00am NNE 12 16 - - - - 10 - - 36.9 1009.0 0.0
03/09:30am NE 12 16 - - - - 10 - - 36.4 1009.1 0.0
03/09:00am E 12 17 - - - - 10 Cloudy - 38.1 1009.1 0.0
03/08:30am ESE 9 14 - - - - 10 - - 35.4 1009.1 0.0
03/08:00am SE 9 11 - - - - 10 - - 34.0 1008.9 0.0
03/07:30am SE 7 10 - - - - 10 - - 33.1 1008.7 0.0
03/07:00am SSE 1 4 - - - - 10 - - 31.4 1008.4 0.0
03/06:30am SSW 3 6 - - - - 10 - - 30.0 1008.3 0.0
03/06:00am S 4 5 - - - - 10 Mostly cloudy - 29.4 1008.1 0.0
03/05:30am SW 4 5 - - - - 10 - - 27.3 1008.1 0.0
03/05:00am SSW 1 4 - - - - 10 - - 27.3 1008.0 0.0
03/04:30am SSE 3 4 - - - - 10 Partly cloudy - 28.6 1008.0 0.0
03/04:00am S 4 5 - - - - 10 Partly cloudy - 29.2 1008.0 0.0
03/03:30am SSE 5 6 - - - - 10 Partly cloudy - 29.4 1008.0 0.0
03/03:00am CALM 0 0 - - - - 10 Mostly cloudy - 28.5 1008.0 0.0
03/02:30am CALM 0 1 - - - - 10 - - 28.8 1008.0 0.0
03/02:00am SSE 3 4 - - - - 10 Partly cloudy - 29.4 1008.1 0.0
03/01:30am SSE 5 6 - - - - 10 Cloudy - 29.6 1008.8 0.0
03/01:00am S 6 7 - - - - 10 Partly cloudy - 29.5 1009.2 0.0
03/12:30am SSW 9 11 - - - - 10 Partly cloudy - 29.3 1009.2 0.0
03/12:00am WSW 6 8 - - - - 10 Mostly cloudy - 28.9 1009.0 0.0
 
Date/Time
WST
Wind Sea
Height
m
Swell Vis
km
Cloud Weather Temp
°C
Press
MSL
hPa
Rain since
9am
mm
Dir  Spd
kts
Gust
kts
Height
m
Period
s
Dir
02/11:30pm W 7 8 - - - - 10 - - 29.1 1009.0 0.0
02/11:00pm W 9 11 - - - - 10 - - 29.4 1008.9 0.0
02/10:30pm WSW 7 9 - - - - 10 - - 29.9 1009.1 0.0
02/10:00pm W 7 9 - - - - 10 Partly cloudy - 30.0 1009.2 0.0
02/09:30pm W 6 7 - - - - 10 - - 29.6 1008.9 0.0
02/09:00pm W 6 7 - - - - 10 - - 29.4 1008.7 0.0
02/08:30pm NW 7 9 - - - - 10 - - 29.8 1008.4 0.0
02/08:00pm NW 8 10 - - - - 10 - - 30.0 1008.2 0.0
02/07:30pm NW 8 12 - - - - 10 - - 30.4 1007.5 0.0
02/07:00pm NW 10 14 - - - - 10 - - 30.9 1007.1 0.0
02/06:30pm NNW 12 14 - - - - 10 - - 31.6 1006.5 0.0
02/06:00pm NNW 13 17 - - - - 10 - - 32.3 1006.2 0.0
02/05:30pm N 15 20 - - - - 10 - - 32.7 1006.0 0.0
02/05:00pm N 15 19 - - - - 10 - - 33.7 1005.8 0.0
02/04:30pm NNW 15 19 - - - - 10 - - 34.5 1005.8 0.0
02/04:00pm N 16 20 - - - - 10 - - 35.3 1005.9 0.0
02/03:30pm N 18 21 - - - - 10 - - 35.1 1006.0 0.0
02/03:00pm N 16 21 - - - - 10 - - 36.3 1006.3 0.0
02/02:30pm N 15 22 - - - - 10 - - 36.8 1006.7 0.0
02/02:00pm N 16 21 - - - - 10 - - 36.2 1007.0 0.0
02/01:30pm N 16 21 - - - - 10 - - 36.6 1007.4 0.0
02/01:00pm N 16 21 - - - - 10 - - 37.5 1007.7 0.0
02/12:30pm N 15 19 - - - - 10 - - 37.9 1008.0 0.0
02/12:00pm N 14 18 - - - - 10 - - 36.9 1008.3 0.0
02/11:30am N 15 19 - - - - 10 - - 36.4 1008.5 0.0

Other formats

Comma delimited format used in spreadsheet applications
http://www.bom.gov.au/fwo/IDW60701/IDW60701.94312.axf

JavaScript Object Notation format (JSON) in row-major order
http://www.bom.gov.au/fwo/IDW60701/IDW60701.94312.json

Data quality

Most of these data are generated automatically and are frequently updated. Quality checks on data are not normally performed. It is possible for incorrect values to appear. Refer to information at About Latest Weather Observations and please check the disclaimer before using these data.